Pennock, MN

7:57 PM CST on February 20, 2017 (GMT -0600)
Willmar

Weather History for KBDH - October, 2012

Change the Weather History Date:

Thursday, October 11, 2012

  Actual Average (KBBB) Record (KBBB)
Temperature  
Mean Temperature 40 °F -  
Max Temperature 53 °F 61 °F 91 °F (2015)
Min Temperature 28 °F 39 °F 21 °F (2012)
Degree Days  
Heating Degree Days 24    
Moisture  
Dew Point 23 °F    
Average Humidity 48    
Maximum Humidity 76    
Minimum Humidity 20    
Precipitation  
Precipitation 0.00 in - - ()
Sea Level Pressure  
Sea Level Pressure 30.15 in    
Wind  
Wind Speed 9 mph (NNW)    
Max Wind Speed 20 mph    
Max Gust Speed 23 mph    
Visibility 10 miles    
Events Rain    
Averages and records for this station are not official NWS values.
T = Trace of Precipitation, MM = Missing Value Source: NWS Daily Summary

Daily Weather History Graph

Daily Weather History Graph

Search for Another Location

Airport or City:

Trip Planner

Search our weather history database for the weather conditions in past years. The results will help you decide how hot, cold, wet, or windy it might be!

Date:

Astronomy

Oct. 11, 2012 Rise Set
Actual Time 7:31 AM CDT 6:41 PM CDT
Civil Twilight 7:02 AM CDT 7:11 PM CDT
Nautical Twilight 6:28 AM CDT 7:45 PM CDT
Astronomical Twilight 5:54 AM CDT 8:19 PM CDT
Moon 3:00 AM CDT (10/11) 4:27 PM CDT (10/11)
Length of Visible Light 12h 08m
Length of Day
11h 09m
Waning Crescent, 18% of the Moon is Illuminated
Oct 11
Waning Crescent
Oct 15
New
Oct 21
First Quarter
Oct 29
Full
Nov 6
Last Quarter

Hourly Weather History & Observations

Time (CDT) Temp. Windchill Dew Point Humidity Pressure Visibility Wind Dir Wind Speed Gust Speed Precip Events Conditions
12:15 AM 53.6 °F - 28.4 °F 38% 29.79 in 10.0 mi West 6.9 mph - N/A   Mostly Cloudy
12:35 AM 53.6 °F - 28.4 °F 38% 29.83 in 10.0 mi NW 13.8 mph 18.4 mph N/A   Scattered Clouds
12:55 AM 53.6 °F - 28.4 °F 38% 29.82 in 10.0 mi Calm Calm - N/A   Mostly Cloudy
1:15 AM 51.8 °F - 28.4 °F 41% 29.82 in 10.0 mi Calm Calm - N/A   Mostly Cloudy
1:35 AM 51.8 °F - 28.4 °F 41% 29.82 in 10.0 mi Calm Calm - N/A   Scattered Clouds
1:55 AM 48.2 °F - 28.4 °F 46% 29.83 in 10.0 mi West 4.6 mph - N/A   Clear
2:15 AM 51.8 °F - 28.4 °F 41% 29.84 in 10.0 mi West 6.9 mph - N/A   Clear
2:35 AM 51.8 °F - 28.4 °F 41% 29.86 in 10.0 mi NW 6.9 mph - N/A   Clear
2:55 AM 50.0 °F - 28.4 °F 43% 29.87 in 10.0 mi NW 9.2 mph - N/A   Scattered Clouds
3:15 AM 48.2 °F - 26.6 °F 43% 29.88 in 10.0 mi North 11.5 mph - N/A   Scattered Clouds
3:35 AM 46.4 °F 40.1 °F 26.6 °F 46% 29.90 in 10.0 mi North 15.0 mph - N/A   Scattered Clouds
3:55 AM 44.6 °F 38.8 °F 28.4 °F 53% 29.91 in 10.0 mi North 11.5 mph 16.1 mph N/A Rain Rain
4:16 AM 44.6 °F 36.6 °F 30.2 °F 57% 29.94 in 10.0 mi North 19.6 mph - N/A   Clear
4:35 AM 42.8 °F 35.8 °F 32.0 °F 66% 29.93 in 10.0 mi North 13.8 mph 19.6 mph N/A   Scattered Clouds
4:55 AM 42.8 °F 35.4 °F 33.8 °F 70% 29.96 in 10.0 mi North 15.0 mph 19.6 mph N/A   Scattered Clouds
5:16 AM 42.8 °F 36.2 °F 33.8 °F 70% 29.99 in 10.0 mi North 12.7 mph 17.3 mph N/A   Scattered Clouds
5:35 AM 42.8 °F 37.5 °F 33.8 °F 70% 29.99 in 10.0 mi North 9.2 mph - N/A   Mostly Cloudy
5:55 AM 42.8 °F 35.1 °F 33.8 °F 70% 30.02 in 10.0 mi North 16.1 mph - N/A   Overcast
6:16 AM 41.0 °F 34.7 °F 33.8 °F 76% 30.03 in 10.0 mi North 10.4 mph - N/A   Mostly Cloudy
6:35 AM 41.0 °F 34.7 °F 33.8 °F 76% 30.04 in 10.0 mi North 10.4 mph - N/A   Scattered Clouds
6:55 AM 41.0 °F 34.7 °F 33.8 °F 76% 30.05 in 10.0 mi North 10.4 mph - N/A   Mostly Cloudy
7:16 AM 41.0 °F 34.7 °F 32.0 °F 70% 30.06 in 10.0 mi North 10.4 mph - N/A   Scattered Clouds
7:35 AM 41.0 °F 33.5 °F 32.0 °F 70% 30.09 in 10.0 mi North 13.8 mph - N/A   Scattered Clouds
7:55 AM 41.0 °F 33.9 °F 32.0 °F 70% 30.09 in 10.0 mi North 12.7 mph - N/A   Scattered Clouds
8:16 AM 39.2 °F 33.0 °F 32.0 °F 75% 30.11 in 10.0 mi North 9.2 mph - N/A   Clear
8:35 AM 41.0 °F 35.2 °F 32.0 °F 70% 30.13 in 10.0 mi NNW 9.2 mph - N/A   Clear
8:55 AM 39.2 °F 32.5 °F 32.0 °F 75% 30.14 in 10.0 mi North 10.4 mph - N/A   Clear
9:16 AM 41.0 °F 34.7 °F 32.0 °F 70% 30.16 in 10.0 mi North 10.4 mph - N/A   Clear
9:35 AM 42.8 °F 36.2 °F 32.0 °F 66% 30.17 in 10.0 mi North 12.7 mph - N/A   Clear
9:55 AM 42.8 °F 35.8 °F 32.0 °F 66% 30.18 in 10.0 mi NNW 13.8 mph 17.3 mph N/A   Clear
10:16 AM 44.6 °F 37.8 °F 28.4 °F 53% 30.19 in 10.0 mi North 15.0 mph - N/A   Clear
10:35 AM 44.6 °F 37.8 °F 28.4 °F 53% 30.20 in 10.0 mi North 15.0 mph - N/A   Clear
10:55 AM 44.6 °F 38.8 °F 26.6 °F 49% 30.20 in 10.0 mi North 11.5 mph - N/A   Clear
11:15 AM 46.4 °F 40.7 °F 24.8 °F 43% 30.21 in 10.0 mi North 12.7 mph 18.4 mph N/A   Scattered Clouds
11:35 AM 46.4 °F 40.1 °F 21.2 °F 37% 30.22 in 10.0 mi North 15.0 mph 21.9 mph N/A   Clear
11:55 AM 46.4 °F 39.8 °F 21.2 °F 37% 30.22 in 10.0 mi NNW 16.1 mph 21.9 mph N/A   Clear
12:15 PM 48.2 °F - 19.4 °F 32% 30.22 in 10.0 mi North 16.1 mph 23.0 mph N/A   Clear
12:55 PM 48.2 °F - 19.4 °F 32% 30.23 in 10.0 mi NNW 13.8 mph 23.0 mph N/A   Clear
1:15 PM 48.2 °F - 15.8 °F 27% 30.23 in 10.0 mi NNW 17.3 mph 21.9 mph N/A   Clear
1:35 PM 48.2 °F - 15.8 °F 27% 30.23 in 10.0 mi North 12.7 mph - N/A   Clear
1:55 PM 48.2 °F - 15.8 °F 27% 30.24 in 10.0 mi NNW 17.3 mph 23.0 mph N/A   Clear
2:15 PM 48.2 °F - 15.8 °F 27% 30.24 in 10.0 mi NNW 12.7 mph 18.4 mph N/A   Clear
2:35 PM 48.2 °F - 14.0 °F 25% 30.25 in 10.0 mi NNW 13.8 mph 20.7 mph N/A   Clear
2:55 PM 48.2 °F - 17.6 °F 30% 30.25 in 10.0 mi NNW 10.4 mph - N/A   Clear
3:15 PM 48.2 °F - 15.8 °F 27% 30.25 in 10.0 mi NW 12.7 mph 18.4 mph N/A   Clear
3:35 PM 50.0 °F - 12.2 °F 22% 30.26 in 10.0 mi NNW 13.8 mph 18.4 mph N/A   Clear
3:55 PM 50.0 °F - 12.2 °F 22% 30.26 in 10.0 mi NW 16.1 mph 20.7 mph N/A   Clear
4:15 PM 50.0 °F - 12.2 °F 22% 30.26 in 10.0 mi NW 17.3 mph 23.0 mph N/A   Clear
4:35 PM 50.0 °F - 10.4 °F 20% 30.27 in 10.0 mi NW 12.7 mph 20.7 mph N/A   Clear
5:15 PM 48.2 °F - 12.2 °F 24% 30.27 in 10.0 mi NNW 13.8 mph - N/A   Clear
5:35 PM 48.2 °F - 12.2 °F 24% 30.28 in 10.0 mi NNW 13.8 mph 21.9 mph N/A   Clear
5:55 PM 46.4 °F 39.8 °F 15.8 °F 29% 30.29 in 10.0 mi NNW 16.1 mph - N/A   Clear
6:15 PM 44.6 °F 37.4 °F 15.8 °F 31% 30.30 in 10.0 mi NNW 16.1 mph - N/A   Clear
6:35 PM 42.8 °F 36.6 °F 17.6 °F 36% 30.31 in 10.0 mi NNW 11.5 mph - N/A   Clear
6:55 PM 41.0 °F 35.8 °F 17.6 °F 39% 30.31 in 7.0 mi NW 8.1 mph - N/A   Clear
7:15 PM 39.2 °F 33.6 °F 17.6 °F 42% 30.32 in 10.0 mi NNW 8.1 mph - N/A   Clear
7:35 PM 37.4 °F 32.8 °F 17.6 °F 45% 30.33 in 10.0 mi NW 5.8 mph - N/A   Clear
7:56 PM 37.4 °F 33.8 °F 19.4 °F 48% 30.34 in 10.0 mi WNW 4.6 mph - N/A   Clear
8:15 PM 35.6 °F 31.7 °F 17.6 °F 48% 30.34 in 10.0 mi NW 4.6 mph - N/A   Clear
8:35 PM 35.6 °F 31.7 °F 17.6 °F 48% 30.35 in 10.0 mi NW 4.6 mph - N/A   Clear
8:56 PM 33.8 °F 29.6 °F 17.6 °F 52% 30.36 in 10.0 mi NNW 4.6 mph - N/A   Clear
9:15 PM 32.0 °F 27.5 °F 17.6 °F 55% 30.36 in 10.0 mi NNW 4.6 mph - N/A   Clear
9:35 PM 32.0 °F - 17.6 °F 55% 30.37 in 10.0 mi Calm Calm - N/A   Clear
9:56 PM 32.0 °F - 17.6 °F 55% 30.38 in 10.0 mi Calm Calm - N/A   Clear
10:35 PM 30.2 °F - 17.6 °F 60% 30.39 in 10.0 mi Calm Calm - N/A   Clear
10:56 PM 28.4 °F - 17.6 °F 64% 30.40 in 10.0 mi Calm Calm - N/A   Clear
11:15 PM 28.4 °F - 19.4 °F 69% 30.41 in 10.0 mi Calm Calm - N/A   Clear
11:35 PM 28.4 °F - 19.4 °F 69% 30.41 in 10.0 mi Calm Calm - N/A   Clear
11:56 PM 28.4 °F - 17.6 °F 64% 30.42 in 10.0 mi Calm Calm - N/A   Clear